Station History

Weather Underground - logo

Station Historical Data
Daily Summary for February 9, 2018 Units:  Both    English   Metric
« Previous Day
Next Day »
Daily Weekly Monthly Yearly Custom
  High: Low: Average:
Temperature: 74.5 °F /  23.6 °C 44.0 °F /  6.7 °C 57.8 °F /  14.3 °C
Dew Point: 53.2 °F /  11.8 °C 41.5 °F /  5.3 °C 47.3 °F /  8.5 °C
Humidity: 93 % 40 % 71 %
Wind Speed: 3.5 mph /  5.6 km/h - 0.4 mph /  0.6 km/h
Wind Gust: 3.5 mph /  5.6 km/h - -
Wind:- - WSW
Pressure: 30.12 in /  1019.9 hPa 29.95 in /  1014.1 hPa -
Precipitation: 0.00 in /  0 mm    
Historical Graphs
 
 
Tabular Data for February 9, 2018
Time Temperature Dew Point Pressure Wind Wind Speed Wind Gust Humidity Rainfall Rate (Hourly)
00:04 49.0 °F /  9.4 °C 45.3 °F /  7.4 °C 30.11 in /  1019.5 hPa Calm     87 % 0.00 in /  0 mm
00:09 49.5 °F /  9.7 °C 45.8 °F /  7.7 °C 30.12 in /  1019.9 hPa Calm     87 % 0.00 in /  0 mm
00:14 49.8 °F /  9.9 °C 45.8 °F /  7.7 °C 30.12 in /  1019.9 hPa Calm     86 % 0.00 in /  0 mm
00:19 49.0 °F /  9.4 °C 44.7 °F /  7.1 °C 30.12 in /  1019.9 hPa Calm     85 % 0.00 in /  0 mm
00:24 48.3 °F /  9.1 °C 44.6 °F /  7 °C 30.11 in /  1019.5 hPa Calm     87 % 0.00 in /  0 mm
00:29 48.1 °F /  8.9 °C 44.7 °F /  7.1 °C 30.12 in /  1019.9 hPa Calm     88 % 0.00 in /  0 mm
00:34 48.4 °F /  9.1 °C 45.3 °F /  7.4 °C 30.11 in /  1019.5 hPa Calm     89 % 0.00 in /  0 mm
00:39 48.5 °F /  9.2 °C 45.1 °F /  7.3 °C 30.12 in /  1019.9 hPa Calm     88 % 0.00 in /  0 mm
00:44 48.3 °F /  9.1 °C 44.6 °F /  7 °C 30.11 in /  1019.5 hPa Calm     87 % 0.00 in /  0 mm
00:49 48.1 °F /  8.9 °C 44.7 °F /  7.1 °C 30.11 in /  1019.5 hPa Calm     88 % 0.00 in /  0 mm
00:54 47.9 °F /  8.8 °C 44.2 °F /  6.8 °C 30.11 in /  1019.5 hPa Calm     87 % 0.00 in /  0 mm
00:59 47.7 °F /  8.7 °C 44.6 °F /  7 °C 30.11 in /  1019.5 hPa Calm     89 % 0.00 in /  0 mm
01:04 47.9 °F /  8.8 °C 44.8 °F /  7.1 °C 30.11 in /  1019.5 hPa Calm     89 % 0.00 in /  0 mm
01:09 47.9 °F /  8.8 °C 44.8 °F /  7.1 °C 30.11 in /  1019.5 hPa Calm     89 % 0.00 in /  0 mm
01:15 47.8 °F /  8.8 °C 44.1 °F /  6.7 °C 30.11 in /  1019.5 hPa Calm     87 % 0.00 in /  0 mm
01:20 47.5 °F /  8.6 °C 44.1 °F /  6.7 °C 30.11 in /  1019.5 hPa Calm     88 % 0.00 in /  0 mm
01:25 47.3 °F /  8.5 °C 43.9 °F /  6.6 °C 30.11 in /  1019.5 hPa Calm     88 % 0.00 in /  0 mm
01:30 47.1 °F /  8.4 °C 43.7 °F /  6.5 °C 30.11 in /  1019.5 hPa Calm     88 % 0.00 in /  0 mm
01:35 46.9 °F /  8.3 °C 43.5 °F /  6.4 °C 30.11 in /  1019.5 hPa Calm     88 % 0.00 in /  0 mm
01:40 46.7 °F /  8.2 °C 43.3 °F /  6.3 °C 30.11 in /  1019.5 hPa Calm     88 % 0.00 in /  0 mm
01:45 46.7 °F /  8.2 °C 43.3 °F /  6.3 °C 30.10 in /  1019.2 hPa Calm     88 % 0.00 in /  0 mm
01:50 46.8 °F /  8.2 °C 43.7 °F /  6.5 °C 30.10 in /  1019.2 hPa Calm     89 % 0.00 in /  0 mm
01:55 47.1 °F /  8.4 °C 44.0 °F /  6.7 °C 30.10 in /  1019.2 hPa Calm     89 % 0.00 in /  0 mm
02:00 47.3 °F /  8.5 °C 44.2 °F /  6.8 °C 30.11 in /  1019.5 hPa Calm     89 % 0.00 in /  0 mm
02:05 47.5 °F /  8.6 °C 44.4 °F /  6.9 °C 30.11 in /  1019.5 hPa Calm     89 % 0.00 in /  0 mm
02:10 47.7 °F /  8.7 °C 44.6 °F /  7 °C 30.10 in /  1019.2 hPa Calm     89 % 0.00 in /  0 mm
02:15 47.6 °F /  8.7 °C 44.2 °F /  6.8 °C 30.10 in /  1019.2 hPa Calm     88 % 0.00 in /  0 mm
02:20 47.4 °F /  8.6 °C 44.0 °F /  6.7 °C 30.10 in /  1019.2 hPa Calm     88 % 0.00 in /  0 mm
02:25 47.1 °F /  8.4 °C 43.4 °F /  6.3 °C 30.10 in /  1019.2 hPa Calm     87 % 0.00 in /  0 mm
02:30 46.8 °F /  8.2 °C 43.1 °F /  6.2 °C 30.10 in /  1019.2 hPa Calm     87 % 0.00 in /  0 mm
02:35 46.5 °F /  8.1 °C 43.1 °F /  6.2 °C 30.10 in /  1019.2 hPa Calm     88 % 0.00 in /  0 mm
02:40 46.2 °F /  7.9 °C 42.8 °F /  6 °C 30.09 in /  1018.8 hPa Calm     88 % 0.00 in /  0 mm
02:45 46.1 °F /  7.8 °C 42.7 °F /  5.9 °C 30.09 in /  1018.8 hPa Calm     88 % 0.00 in /  0 mm
02:50 45.9 °F /  7.7 °C 42.8 °F /  6 °C 30.09 in /  1018.8 hPa Calm     89 % 0.00 in /  0 mm
02:55 45.8 °F /  7.7 °C 42.7 °F /  5.9 °C 30.09 in /  1018.8 hPa Calm     89 % 0.00 in /  0 mm
03:00 45.3 °F /  7.4 °C 42.0 °F /  5.6 °C 30.09 in /  1018.8 hPa Calm     88 % 0.00 in /  0 mm
03:05 44.9 °F /  7.2 °C 41.9 °F /  5.5 °C 30.09 in /  1018.8 hPa Calm     89 % 0.00 in /  0 mm
03:10 44.7 °F /  7.1 °C 41.7 °F /  5.4 °C 30.09 in /  1018.8 hPa Calm     89 % 0.00 in /  0 mm
03:15 44.6 °F /  7 °C 41.8 °F /  5.4 °C 30.09 in /  1018.8 hPa Calm     90 % 0.00 in /  0 mm
03:20 44.5 °F /  6.9 °C 41.7 °F /  5.4 °C 30.09 in /  1018.8 hPa Calm     90 % 0.00 in /  0 mm
03:25 44.5 °F /  6.9 °C 41.7 °F /  5.4 °C 30.10 in /  1019.2 hPa Calm     90 % 0.00 in /  0 mm
03:31 44.4 °F /  6.9 °C 41.7 °F /  5.4 °C 30.10 in /  1019.2 hPa Calm     90 % 0.00 in /  0 mm
03:36 44.2 °F /  6.8 °C 41.5 °F /  5.3 °C 30.10 in /  1019.2 hPa Calm     90 % 0.00 in /  0 mm
03:41 44.2 °F /  6.8 °C 41.7 °F /  5.4 °C 30.10 in /  1019.2 hPa Calm     91 % 0.00 in /  0 mm
03:46 44.4 °F /  6.9 °C 41.9 °F /  5.5 °C 30.10 in /  1019.2 hPa Calm     91 % 0.00 in /  0 mm
03:51 44.3 °F /  6.8 °C 41.8 °F /  5.4 °C 30.10 in /  1019.2 hPa Calm     91 % 0.00 in /  0 mm
03:56 44.6 °F /  7 °C 42.4 °F /  5.8 °C 30.09 in /  1018.8 hPa Calm     92 % 0.00 in /  0 mm
04:01 44.9 °F /  7.2 °C 42.4 °F /  5.8 °C 30.09 in /  1018.8 hPa Calm     91 % 0.00 in /  0 mm
04:06 45.2 °F /  7.3 °C 42.7 °F /  5.9 °C 30.09 in /  1018.8 hPa Calm     91 % 0.00 in /  0 mm
04:11 45.3 °F /  7.4 °C 42.5 °F /  5.8 °C 30.09 in /  1018.8 hPa Calm     90 % 0.00 in /  0 mm
04:16 45.3 °F /  7.4 °C 42.5 °F /  5.8 °C 30.09 in /  1018.8 hPa Calm     90 % 0.00 in /  0 mm
04:21 45.4 °F /  7.4 °C 42.6 °F /  5.9 °C 30.09 in /  1018.8 hPa Calm     90 % 0.00 in /  0 mm
04:26 45.5 °F /  7.5 °C 42.7 °F /  5.9 °C 30.09 in /  1018.8 hPa Calm     90 % 0.00 in /  0 mm
04:31 45.3 °F /  7.4 °C 42.5 °F /  5.8 °C 30.09 in /  1018.8 hPa Calm     90 % 0.00 in /  0 mm
04:36 45.1 °F /  7.3 °C 42.3 °F /  5.7 °C 30.09 in /  1018.8 hPa Calm     90 % 0.00 in /  0 mm
04:41 45.1 °F /  7.3 °C 42.6 °F /  5.9 °C 30.09 in /  1018.8 hPa Calm     91 % 0.00 in /  0 mm
04:46 44.9 °F /  7.2 °C 42.4 °F /  5.8 °C 30.09 in /  1018.8 hPa Calm     91 % 0.00 in /  0 mm
04:51 44.8 °F /  7.1 °C 42.3 °F /  5.7 °C 30.09 in /  1018.8 hPa Calm     91 % 0.00 in /  0 mm
04:56 44.9 °F /  7.2 °C 42.4 °F /  5.8 °C 30.08 in /  1018.5 hPa Calm     91 % 0.00 in /  0 mm
05:01 45.0 °F /  7.2 °C 42.5 °F /  5.8 °C 30.08 in /  1018.5 hPa Calm     91 % 0.00 in /  0 mm
05:06 44.7 °F /  7.1 °C 42.2 °F /  5.7 °C 30.08 in /  1018.5 hPa Calm     91 % 0.00 in /  0 mm
05:11 44.5 °F /  6.9 °C 41.7 °F /  5.4 °C 30.08 in /  1018.5 hPa Calm     90 % 0.00 in /  0 mm
05:16 44.3 °F /  6.8 °C 41.6 °F /  5.3 °C 30.08 in /  1018.5 hPa Calm     90 % 0.00 in /  0 mm
05:21 44.6 °F /  7 °C 42.4 °F /  5.8 °C 30.08 in /  1018.5 hPa Calm     92 % 0.00 in /  0 mm
05:26 44.7 °F /  7.1 °C 42.5 °F /  5.8 °C 30.08 in /  1018.5 hPa Calm     92 % 0.00 in /  0 mm
05:31 44.5 °F /  6.9 °C 42.3 °F /  5.7 °C 30.08 in /  1018.5 hPa Calm     92 % 0.00 in /  0 mm
05:36 44.4 °F /  6.9 °C 42.2 °F /  5.7 °C 30.08 in /  1018.5 hPa Calm     92 % 0.00 in /  0 mm
05:41 44.4 °F /  6.9 °C 42.2 °F /  5.7 °C 30.08 in /  1018.5 hPa Calm     92 % 0.00 in /  0 mm
05:46 44.3 °F /  6.8 °C 42.1 °F /  5.6 °C 30.08 in /  1018.5 hPa Calm     92 % 0.00 in /  0 mm
05:51 44.3 °F /  6.8 °C 42.1 °F /  5.6 °C 30.08 in /  1018.5 hPa Calm     92 % 0.00 in /  0 mm
05:56 44.3 °F /  6.8 °C 42.1 °F /  5.6 °C 30.08 in /  1018.5 hPa Calm     92 % 0.00 in /  0 mm
06:01 44.3 °F /  6.8 °C 42.1 °F /  5.6 °C 30.08 in /  1018.5 hPa Calm     92 % 0.00 in /  0 mm
06:06 44.3 °F /  6.8 °C 42.1 °F /  5.6 °C 30.08 in /  1018.5 hPa Calm     92 % 0.00 in /  0 mm
06:11 44.3 °F /  6.8 °C 42.1 °F /  5.6 °C 30.08 in /  1018.5 hPa Calm     92 % 0.00 in /  0 mm
06:16 44.3 °F /  6.8 °C 42.1 °F /  5.6 °C 30.08 in /  1018.5 hPa Calm     92 % 0.00 in /  0 mm
06:21 44.3 °F /  6.8 °C 42.1 °F /  5.6 °C 30.08 in /  1018.5 hPa Calm     92 % 0.00 in /  0 mm
06:26 44.2 °F /  6.8 °C 42.0 °F /  5.6 °C 30.08 in /  1018.5 hPa Calm     92 % 0.00 in /  0 mm
06:31 44.1 °F /  6.7 °C 41.9 °F /  5.5 °C 30.08 in /  1018.5 hPa Calm     92 % 0.00 in /  0 mm
06:36 44.0 °F /  6.7 °C 41.8 °F /  5.4 °C 30.08 in /  1018.5 hPa Calm     92 % 0.00 in /  0 mm
06:41 44.1 °F /  6.7 °C 41.9 °F /  5.5 °C 30.08 in /  1018.5 hPa Calm     92 % 0.00 in /  0 mm
06:47 44.4 °F /  6.9 °C 42.5 °F /  5.8 °C 30.08 in /  1018.5 hPa Calm     93 % 0.00 in /  0 mm
06:51 44.9 °F /  7.2 °C 43.0 °F /  6.1 °C 30.08 in /  1018.5 hPa Calm     93 % 0.00 in /  0 mm
06:56 45.1 °F /  7.3 °C 43.2 °F /  6.2 °C 30.08 in /  1018.5 hPa Calm     93 % 0.00 in /  0 mm
07:02 45.1 °F /  7.3 °C 42.9 °F /  6.1 °C 30.09 in /  1018.8 hPa Calm     92 % 0.00 in /  0 mm
07:07 45.0 °F /  7.2 °C 42.8 °F /  6 °C 30.08 in /  1018.5 hPa Calm     92 % 0.00 in /  0 mm
07:12 44.9 °F /  7.2 °C 42.7 °F /  5.9 °C 30.09 in /  1018.8 hPa Calm     92 % 0.00 in /  0 mm
07:17 45.1 °F /  7.3 °C 42.9 °F /  6.1 °C 30.08 in /  1018.5 hPa Calm     92 % 0.00 in /  0 mm
07:22 45.3 °F /  7.4 °C 43.1 °F /  6.2 °C 30.08 in /  1018.5 hPa Calm     92 % 0.00 in /  0 mm
07:27 45.6 °F /  7.6 °C 43.7 °F /  6.5 °C 30.09 in /  1018.8 hPa Calm     93 % 0.00 in /  0 mm
07:32 46.0 °F /  7.8 °C 43.8 °F /  6.6 °C 30.09 in /  1018.8 hPa Calm     92 % 0.00 in /  0 mm
07:37 46.5 °F /  8.1 °C 44.3 °F /  6.8 °C 30.09 in /  1018.8 hPa Calm     92 % 0.00 in /  0 mm
07:42 46.8 °F /  8.2 °C 44.3 °F /  6.8 °C 30.09 in /  1018.8 hPa Calm     91 % 0.00 in /  0 mm
07:47 47.4 °F /  8.6 °C 44.9 °F /  7.2 °C 30.10 in /  1019.2 hPa Calm     91 % 0.00 in /  0 mm
07:52 48.1 °F /  8.9 °C 45.6 °F /  7.6 °C 30.10 in /  1019.2 hPa Calm     91 % 0.00 in /  0 mm
07:57 48.8 °F /  9.3 °C 46.0 °F /  7.8 °C 30.10 in /  1019.2 hPa Calm     90 % 0.00 in /  0 mm
08:02 49.7 °F /  9.8 °C 46.6 °F /  8.1 °C 30.10 in /  1019.2 hPa Calm     89 % 0.00 in /  0 mm
08:07 51.1 °F /  10.6 °C 47.7 °F /  8.7 °C 30.10 in /  1019.2 hPa Calm     88 % 0.00 in /  0 mm
08:12 52.7 °F /  11.5 °C 48.6 °F /  9.2 °C 30.10 in /  1019.2 hPa Calm     86 % 0.00 in /  0 mm
08:17 54.5 °F /  12.5 °C 49.1 °F /  9.5 °C 30.11 in /  1019.5 hPa Calm     82 % 0.00 in /  0 mm
08:22 55.6 °F /  13.1 °C 49.5 °F /  9.7 °C 30.11 in /  1019.5 hPa Calm     80 % 0.00 in /  0 mm
08:27 56.6 °F /  13.7 °C 50.2 °F /  10.1 °C 30.11 in /  1019.5 hPa Calm     79 % 0.00 in /  0 mm
08:32 57.4 °F /  14.1 °C 49.5 °F /  9.7 °C 30.11 in /  1019.5 hPa Calm     75 % 0.00 in /  0 mm
08:37 57.8 °F /  14.3 °C 49.9 °F /  9.9 °C 30.12 in /  1019.9 hPa Calm     75 % 0.00 in /  0 mm
08:42 58.3 °F /  14.6 °C 50.0 °F /  10 °C 30.12 in /  1019.9 hPa Calm     74 % 0.00 in /  0 mm
08:47 57.8 °F /  14.3 °C 49.6 °F /  9.8 °C 30.12 in /  1019.9 hPa Calm     74 % 0.00 in /  0 mm
08:52 57.9 °F /  14.4 °C 49.3 °F /  9.6 °C 30.12 in /  1019.9 hPa Calm     73 % 0.00 in /  0 mm
08:57 58.6 °F /  14.8 °C 50.0 °F /  10 °C 30.12 in /  1019.9 hPa Calm     73 % 0.00 in /  0 mm
09:02 59.4 °F /  15.2 °C 50.0 °F /  10 °C 30.12 in /  1019.9 hPa Calm     71 % 0.00 in /  0 mm
09:07 60.0 °F /  15.6 °C 49.8 °F /  9.9 °C 30.11 in /  1019.5 hPa Calm     69 % 0.00 in /  0 mm
09:12 60.5 °F /  15.8 °C 49.5 °F /  9.7 °C 30.11 in /  1019.5 hPa Calm     67 % 0.00 in /  0 mm
09:17 60.8 °F /  16 °C 49.8 °F /  9.9 °C 30.11 in /  1019.5 hPa Calm     67 % 0.00 in /  0 mm
09:22 61.4 °F /  16.3 °C 49.5 °F /  9.7 °C 30.11 in /  1019.5 hPa Calm     65 % 0.00 in /  0 mm
09:27 61.6 °F /  16.4 °C 49.3 °F /  9.6 °C 30.11 in /  1019.5 hPa Calm     64 % 0.00 in /  0 mm
09:32 62.1 °F /  16.7 °C 48.9 °F /  9.4 °C 30.11 in /  1019.5 hPa Calm     62 % 0.00 in /  0 mm
09:37 62.0 °F /  16.7 °C 48.4 °F /  9.1 °C 30.11 in /  1019.5 hPa Calm     61 % 0.00 in /  0 mm
09:42 62.0 °F /  16.7 °C 48.8 °F /  9.3 °C 30.10 in /  1019.2 hPa South 1.2 mph /  1.9 km/h   62 % 0.00 in /  0 mm
09:47 62.6 °F /  17 °C 49.0 °F /  9.4 °C 30.10 in /  1019.2 hPa Calm     61 % 0.00 in /  0 mm
09:52 63.3 °F /  17.4 °C 49.2 °F /  9.6 °C 30.10 in /  1019.2 hPa Calm     60 % 0.00 in /  0 mm
09:57 63.3 °F /  17.4 °C 48.7 °F /  9.3 °C 30.10 in /  1019.2 hPa Calm     59 % 0.00 in /  0 mm
10:02 62.9 °F /  17.2 °C 48.8 °F /  9.3 °C 30.10 in /  1019.2 hPa Calm     60 % 0.00 in /  0 mm
10:07 63.6 °F /  17.6 °C 49.0 °F /  9.4 °C 30.10 in /  1019.2 hPa NNW 1.2 mph /  1.9 km/h 1.2 mph /  1.9 km/h 59 % 0.00 in /  0 mm
10:12 63.8 °F /  17.7 °C 48.3 °F /  9.1 °C 30.09 in /  1018.8 hPa Calm     57 % 0.00 in /  0 mm
10:17 64.2 °F /  17.9 °C 50.0 °F /  10 °C 30.09 in /  1018.8 hPa Calm     60 % 0.00 in /  0 mm
10:22 65.3 °F /  18.5 °C 50.1 °F /  10.1 °C 30.09 in /  1018.8 hPa SSW 1.2 mph /  1.9 km/h 1.2 mph /  1.9 km/h 58 % 0.00 in /  0 mm
10:27 65.6 °F /  18.7 °C 50.0 °F /  10 °C 30.09 in /  1018.8 hPa SE 2.0 mph /  3.2 km/h 2.0 mph /  3.2 km/h 57 % 0.00 in /  0 mm
10:32 65.9 °F /  18.8 °C 50.2 °F /  10.1 °C 30.09 in /  1018.8 hPa SE 1.2 mph /  1.9 km/h   57 % 0.00 in /  0 mm
10:37 66.1 °F /  18.9 °C 50.9 °F /  10.5 °C 30.09 in /  1018.8 hPa Calm     58 % 0.00 in /  0 mm
10:42 66.7 °F /  19.3 °C 51.0 °F /  10.6 °C 30.09 in /  1018.8 hPa SSW 2.0 mph /  3.2 km/h 2.0 mph /  3.2 km/h 57 % 0.00 in /  0 mm
10:47 67.0 °F /  19.4 °C 50.3 °F /  10.2 °C 30.09 in /  1018.8 hPa Calm     55 % 0.00 in /  0 mm
10:52 67.2 °F /  19.6 °C 50.5 °F /  10.3 °C 30.08 in /  1018.5 hPa NNW 2.3 mph /  3.7 km/h 2.3 mph /  3.7 km/h 55 % 0.00 in /  0 mm
10:57 67.5 °F /  19.7 °C 51.7 °F /  10.9 °C 30.08 in /  1018.5 hPa SSE 2.3 mph /  3.7 km/h   57 % 0.00 in /  0 mm
11:02 67.3 °F /  19.6 °C 51.1 °F /  10.6 °C 30.08 in /  1018.5 hPa NW 1.2 mph /  1.9 km/h   56 % 0.00 in /  0 mm
11:07 66.9 °F /  19.4 °C 50.2 °F /  10.1 °C 30.08 in /  1018.5 hPa NNW 1.2 mph /  1.9 km/h 1.2 mph /  1.9 km/h 55 % 0.00 in /  0 mm
11:12 67.1 °F /  19.5 °C 51.4 °F /  10.8 °C 30.08 in /  1018.5 hPa SW 1.0 mph /  1.6 km/h 1.0 mph /  1.6 km/h 57 % 0.00 in /  0 mm
11:17 67.4 °F /  19.7 °C 51.2 °F /  10.7 °C 30.07 in /  1018.2 hPa West 1.2 mph /  1.9 km/h 1.2 mph /  1.9 km/h 56 % 0.00 in /  0 mm
11:22 67.3 °F /  19.6 °C 50.6 °F /  10.3 °C 30.08 in /  1018.5 hPa South 2.3 mph /  3.7 km/h 2.3 mph /  3.7 km/h 55 % 0.00 in /  0 mm
11:27 67.3 °F /  19.6 °C 50.6 °F /  10.3 °C 30.07 in /  1018.2 hPa SW 2.3 mph /  3.7 km/h   55 % 0.00 in /  0 mm
11:32 67.8 °F /  19.9 °C 51.0 °F /  10.6 °C 30.07 in /  1018.2 hPa NW 2.3 mph /  3.7 km/h 2.3 mph /  3.7 km/h 55 % 0.00 in /  0 mm
11:37 67.9 °F /  19.9 °C 51.1 °F /  10.6 °C 30.07 in /  1018.2 hPa NW 2.3 mph /  3.7 km/h 2.3 mph /  3.7 km/h 55 % 0.00 in /  0 mm
11:42 68.3 °F /  20.2 °C 51.5 °F /  10.8 °C 30.06 in /  1017.8 hPa WNW 3.5 mph /  5.6 km/h 3.5 mph /  5.6 km/h 55 % 0.00 in /  0 mm
11:47 68.8 °F /  20.4 °C 52.5 °F /  11.4 °C 30.06 in /  1017.8 hPa SSE 1.2 mph /  1.9 km/h 1.2 mph /  1.9 km/h 56 % 0.00 in /  0 mm
11:52 69.6 °F /  20.9 °C 51.7 °F /  10.9 °C 30.06 in /  1017.8 hPa SSE 3.5 mph /  5.6 km/h 3.5 mph /  5.6 km/h 53 % 0.00 in /  0 mm
11:57 69.9 °F /  21.1 °C 52.5 °F /  11.4 °C 30.06 in /  1017.8 hPa NNW 2.0 mph /  3.2 km/h 2.0 mph /  3.2 km/h 54 % 0.00 in /  0 mm
12:02 69.9 °F /  21.1 °C 52.5 °F /  11.4 °C 30.05 in /  1017.5 hPa Calm   0.1 mph /  0.2 km/h 54 % 0.00 in /  0 mm
12:07 70.3 °F /  21.3 °C 52.9 °F /  11.6 °C 30.05 in /  1017.5 hPa SSE 1.2 mph /  1.9 km/h   54 % 0.00 in /  0 mm
12:12 70.8 °F /  21.6 °C 51.2 °F /  10.7 °C 30.04 in /  1017.2 hPa NW 2.3 mph /  3.7 km/h 2.3 mph /  3.7 km/h 50 % 0.00 in /  0 mm
12:17 71.4 °F /  21.9 °C 52.3 °F /  11.3 °C 30.04 in /  1017.2 hPa ESE 2.3 mph /  3.7 km/h 2.3 mph /  3.7 km/h 51 % 0.00 in /  0 mm
12:22 71.9 °F /  22.2 °C 52.2 °F /  11.2 °C 30.04 in /  1017.2 hPa North 2.3 mph /  3.7 km/h   50 % 0.00 in /  0 mm
12:27 72.4 °F /  22.4 °C 53.2 °F /  11.8 °C 30.04 in /  1017.2 hPa Calm     51 % 0.00 in /  0 mm
12:33 72.7 °F /  22.6 °C 53.0 °F /  11.7 °C 30.04 in /  1017.2 hPa ESE 1.2 mph /  1.9 km/h   50 % 0.00 in /  0 mm
12:38 72.7 °F /  22.6 °C 51.9 °F /  11.1 °C 30.03 in /  1016.8 hPa NW 2.3 mph /  3.7 km/h 2.3 mph /  3.7 km/h 48 % 0.00 in /  0 mm
12:43 72.9 °F /  22.7 °C 52.1 °F /  11.2 °C 30.03 in /  1016.8 hPa SSE 1.2 mph /  1.9 km/h 1.2 mph /  1.9 km/h 48 % 0.00 in /  0 mm
12:48 73.4 °F /  23 °C 53.1 °F /  11.7 °C 30.03 in /  1016.8 hPa SE 1.2 mph /  1.9 km/h   49 % 0.00 in /  0 mm
12:53 73.7 °F /  23.2 °C 51.6 °F /  10.9 °C 30.02 in /  1016.5 hPa ESE 1.2 mph /  1.9 km/h 1.2 mph /  1.9 km/h 46 % 0.00 in /  0 mm
12:58 73.6 °F /  23.1 °C 52.1 °F /  11.2 °C 30.02 in /  1016.5 hPa NW 3.5 mph /  5.6 km/h 3.5 mph /  5.6 km/h 47 % 0.00 in /  0 mm
13:03 73.3 °F /  22.9 °C 51.8 °F /  11 °C 30.02 in /  1016.5 hPa NW 3.5 mph /  5.6 km/h 3.5 mph /  5.6 km/h 47 % 0.00 in /  0 mm
13:08 73.3 °F /  22.9 °C 51.8 °F /  11 °C 30.01 in /  1016.1 hPa West 1.2 mph /  1.9 km/h   47 % 0.00 in /  0 mm
13:13 73.2 °F /  22.9 °C 52.3 °F /  11.3 °C 30.01 in /  1016.1 hPa ESE 1.2 mph /  1.9 km/h 1.2 mph /  1.9 km/h 48 % 0.00 in /  0 mm
13:18 73.5 °F /  23.1 °C 51.4 °F /  10.8 °C 30.01 in /  1016.1 hPa NW 2.3 mph /  3.7 km/h 2.3 mph /  3.7 km/h 46 % 0.00 in /  0 mm
13:23 73.6 °F /  23.1 °C 52.1 °F /  11.2 °C 30.00 in /  1015.8 hPa NNW 1.2 mph /  1.9 km/h   47 % 0.00 in /  0 mm
13:28 73.8 °F /  23.2 °C 52.3 °F /  11.3 °C 30.00 in /  1015.8 hPa Calm     47 % 0.00 in /  0 mm
13:33 73.6 °F /  23.1 °C 51.5 °F /  10.8 °C 30.00 in /  1015.8 hPa WNW 3.5 mph /  5.6 km/h 3.5 mph /  5.6 km/h 46 % 0.00 in /  0 mm
13:38 73.3 °F /  22.9 °C 50.7 °F /  10.4 °C 30.00 in /  1015.8 hPa NNW 2.3 mph /  3.7 km/h 2.3 mph /  3.7 km/h 45 % 0.00 in /  0 mm
13:43 73.5 °F /  23.1 °C 50.9 °F /  10.5 °C 29.99 in /  1015.5 hPa NW 2.3 mph /  3.7 km/h 2.3 mph /  3.7 km/h 45 % 0.00 in /  0 mm
13:48 73.9 °F /  23.3 °C 51.8 °F /  11 °C 29.99 in /  1015.5 hPa East 1.2 mph /  1.9 km/h   46 % 0.00 in /  0 mm
13:53 74.4 °F /  23.6 °C 51.1 °F /  10.6 °C 29.99 in /  1015.5 hPa Calm     44 % 0.00 in /  0 mm
13:58 74.5 °F /  23.6 °C 51.2 °F /  10.7 °C 29.99 in /  1015.5 hPa NW 1.2 mph /  1.9 km/h 1.2 mph /  1.9 km/h 44 % 0.00 in /  0 mm
14:03 74.4 °F /  23.6 °C 51.1 °F /  10.6 °C 29.99 in /  1015.5 hPa West 1.2 mph /  1.9 km/h 1.2 mph /  1.9 km/h 44 % 0.00 in /  0 mm
14:08 74.4 °F /  23.6 °C 51.7 °F /  10.9 °C 29.98 in /  1015.1 hPa West 1.2 mph /  1.9 km/h   45 % 0.00 in /  0 mm
14:13 74.1 °F /  23.4 °C 50.8 °F /  10.4 °C 29.98 in /  1015.1 hPa Calm   0.1 mph /  0.2 km/h 44 % 0.00 in /  0 mm
14:18 73.9 °F /  23.3 °C 50.6 °F /  10.3 °C 29.98 in /  1015.1 hPa SW 3.5 mph /  5.6 km/h 3.5 mph /  5.6 km/h 44 % 0.00 in /  0 mm
14:23 74.0 °F /  23.3 °C 51.3 °F /  10.7 °C 29.98 in /  1015.1 hPa NW 2.3 mph /  3.7 km/h 2.3 mph /  3.7 km/h 45 % 0.00 in /  0 mm
14:28 73.9 °F /  23.3 °C 50.6 °F /  10.3 °C 29.98 in /  1015.1 hPa Calm     44 % 0.00 in /  0 mm
14:33 74.0 °F /  23.3 °C 49.4 °F /  9.7 °C 29.98 in /  1015.1 hPa NW 1.2 mph /  1.9 km/h 1.2 mph /  1.9 km/h 42 % 0.00 in /  0 mm
14:38 74.1 °F /  23.4 °C 50.2 °F /  10.1 °C 29.98 in /  1015.1 hPa NW 2.3 mph /  3.7 km/h 2.3 mph /  3.7 km/h 43 % 0.00 in /  0 mm
14:43 74.0 °F /  23.3 °C 50.1 °F /  10.1 °C 29.98 in /  1015.1 hPa WNW 2.3 mph /  3.7 km/h 2.3 mph /  3.7 km/h 43 % 0.00 in /  0 mm
14:48 74.0 °F /  23.3 °C 49.4 °F /  9.7 °C 29.98 in /  1015.1 hPa NNW 1.2 mph /  1.9 km/h   42 % 0.00 in /  0 mm
14:53 74.3 °F /  23.5 °C 49.7 °F /  9.8 °C 29.97 in /  1014.8 hPa Calm     42 % 0.00 in /  0 mm
14:58 74.5 °F /  23.6 °C 49.2 °F /  9.6 °C 29.97 in /  1014.8 hPa NW 1.0 mph /  1.6 km/h 1.0 mph /  1.6 km/h 41 % 0.00 in /  0 mm
15:03 74.2 °F /  23.4 °C 49.0 °F /  9.4 °C 29.97 in /  1014.8 hPa West 2.3 mph /  3.7 km/h 2.3 mph /  3.7 km/h 41 % 0.00 in /  0 mm
15:08 74.0 °F /  23.3 °C 48.8 °F /  9.3 °C 29.97 in /  1014.8 hPa Calm     41 % 0.00 in /  0 mm
15:13 73.9 °F /  23.3 °C 49.4 °F /  9.7 °C 29.97 in /  1014.8 hPa NW 2.3 mph /  3.7 km/h 2.3 mph /  3.7 km/h 42 % 0.00 in /  0 mm
15:18 73.9 °F /  23.3 °C 48.7 °F /  9.3 °C 29.97 in /  1014.8 hPa WNW 1.2 mph /  1.9 km/h   41 % 0.00 in /  0 mm
15:23 73.9 °F /  23.3 °C 49.4 °F /  9.7 °C 29.97 in /  1014.8 hPa Calm     42 % 0.00 in /  0 mm
15:28 73.8 °F /  23.2 °C 49.3 °F /  9.6 °C 29.97 in /  1014.8 hPa West 2.0 mph /  3.2 km/h 2.0 mph /  3.2 km/h 42 % 0.00 in /  0 mm
15:33 73.6 °F /  23.1 °C 48.4 °F /  9.1 °C 29.97 in /  1014.8 hPa NW 1.2 mph /  1.9 km/h   41 % 0.00 in /  0 mm
15:38 73.5 °F /  23.1 °C 48.4 °F /  9.1 °C 29.96 in /  1014.4 hPa East 1.0 mph /  1.6 km/h 1.0 mph /  1.6 km/h 41 % 0.00 in /  0 mm
15:43 73.4 °F /  23 °C 48.9 °F /  9.4 °C 29.96 in /  1014.4 hPa Calm     42 % 0.00 in /  0 mm
15:48 73.5 °F /  23.1 °C 47.7 °F /  8.7 °C 29.96 in /  1014.4 hPa NW 1.2 mph /  1.9 km/h 1.2 mph /  1.9 km/h 40 % 0.00 in /  0 mm
15:53 73.5 °F /  23.1 °C 49.0 °F /  9.4 °C 29.96 in /  1014.4 hPa NW 1.2 mph /  1.9 km/h   42 % 0.00 in /  0 mm
15:58 73.4 °F /  23 °C 48.9 °F /  9.4 °C 29.96 in /  1014.4 hPa NW 1.2 mph /  1.9 km/h   42 % 0.00 in /  0 mm
16:03 73.3 °F /  22.9 °C 48.8 °F /  9.3 °C 29.96 in /  1014.4 hPa WNW 1.2 mph /  1.9 km/h   42 % 0.00 in /  0 mm
16:08 73.2 °F /  22.9 °C 48.7 °F /  9.3 °C 29.96 in /  1014.4 hPa WNW 1.2 mph /  1.9 km/h   42 % 0.00 in /  0 mm
16:13 73.1 °F /  22.8 °C 49.3 °F /  9.6 °C 29.96 in /  1014.4 hPa Calm     43 % 0.00 in /  0 mm
16:18 72.9 °F /  22.7 °C 48.5 °F /  9.2 °C 29.96 in /  1014.4 hPa WNW 1.2 mph /  1.9 km/h   42 % 0.00 in /  0 mm
16:23 72.7 °F /  22.6 °C 48.3 °F /  9.1 °C 29.96 in /  1014.4 hPa Calm     42 % 0.00 in /  0 mm
16:28 72.6 °F /  22.6 °C 48.8 °F /  9.3 °C 29.96 in /  1014.4 hPa WNW 1.0 mph /  1.6 km/h 1.0 mph /  1.6 km/h 43 % 0.00 in /  0 mm
16:33 72.5 °F /  22.5 °C 48.7 °F /  9.3 °C 29.96 in /  1014.4 hPa Calm     43 % 0.00 in /  0 mm
16:38 72.3 °F /  22.4 °C 49.2 °F /  9.6 °C 29.96 in /  1014.4 hPa Calm     44 % 0.00 in /  0 mm
16:43 72.1 °F /  22.3 °C 49.0 °F /  9.4 °C 29.96 in /  1014.4 hPa Calm     44 % 0.00 in /  0 mm
16:49 71.9 °F /  22.2 °C 48.8 °F /  9.3 °C 29.96 in /  1014.4 hPa Calm     44 % 0.00 in /  0 mm
16:54 71.7 °F /  22.1 °C 48.6 °F /  9.2 °C 29.96 in /  1014.4 hPa Calm     44 % 0.00 in /  0 mm
16:59 71.4 °F /  21.9 °C 48.3 °F /  9.1 °C 29.96 in /  1014.4 hPa Calm     44 % 0.00 in /  0 mm
17:04 71.0 °F /  21.7 °C 48.6 °F /  9.2 °C 29.96 in /  1014.4 hPa Calm     45 % 0.00 in /  0 mm
17:09 70.5 °F /  21.4 °C 50.4 °F /  10.2 °C 29.96 in /  1014.4 hPa Calm     49 % 0.00 in /  0 mm
17:14 69.9 °F /  21.1 °C 50.4 °F /  10.2 °C 29.96 in /  1014.4 hPa Calm     50 % 0.00 in /  0 mm
17:19 69.3 °F /  20.7 °C 50.4 °F /  10.2 °C 29.96 in /  1014.4 hPa Calm     51 % 0.00 in /  0 mm
17:24 68.7 °F /  20.4 °C 50.4 °F /  10.2 °C 29.96 in /  1014.4 hPa Calm     52 % 0.00 in /  0 mm
17:29 68.2 °F /  20.1 °C 50.9 °F /  10.5 °C 29.95 in /  1014.1 hPa Calm     54 % 0.00 in /  0 mm
17:34 67.5 °F /  19.7 °C 50.8 °F /  10.4 °C 29.95 in /  1014.1 hPa Calm     55 % 0.00 in /  0 mm
17:39 66.7 °F /  19.3 °C 50.5 °F /  10.3 °C 29.96 in /  1014.4 hPa Calm     56 % 0.00 in /  0 mm
17:44 66.3 °F /  19.1 °C 49.6 °F /  9.8 °C 29.96 in /  1014.4 hPa Calm     55 % 0.00 in /  0 mm
17:49 65.7 °F /  18.7 °C 49.6 °F /  9.8 °C 29.96 in /  1014.4 hPa Calm     56 % 0.00 in /  0 mm
17:54 65.3 °F /  18.5 °C 49.7 °F /  9.8 °C 29.96 in /  1014.4 hPa Calm     57 % 0.00 in /  0 mm
17:59 64.8 °F /  18.2 °C 49.2 °F /  9.6 °C 29.96 in /  1014.4 hPa Calm     57 % 0.00 in /  0 mm
18:04 64.4 °F /  18 °C 49.8 °F /  9.9 °C 29.96 in /  1014.4 hPa Calm     59 % 0.00 in /  0 mm
18:09 63.9 °F /  17.7 °C 48.8 °F /  9.3 °C 29.96 in /  1014.4 hPa Calm     58 % 0.00 in /  0 mm
18:14 63.4 °F /  17.4 °C 48.8 °F /  9.3 °C 29.96 in /  1014.4 hPa Calm     59 % 0.00 in /  0 mm
18:19 63.1 °F /  17.3 °C 49.0 °F /  9.4 °C 29.96 in /  1014.4 hPa Calm     60 % 0.00 in /  0 mm
18:24 62.7 °F /  17.1 °C 49.5 °F /  9.7 °C 29.96 in /  1014.4 hPa Calm     62 % 0.00 in /  0 mm
18:29 62.2 °F /  16.8 °C 49.0 °F /  9.4 °C 29.96 in /  1014.4 hPa Calm     62 % 0.00 in /  0 mm
18:34 61.8 °F /  16.6 °C 49.1 °F /  9.5 °C 29.97 in /  1014.8 hPa Calm     63 % 0.00 in /  0 mm
18:39 61.7 °F /  16.5 °C 49.4 °F /  9.7 °C 29.97 in /  1014.8 hPa Calm     64 % 0.00 in /  0 mm
18:44 61.5 °F /  16.4 °C 48.8 °F /  9.3 °C 29.97 in /  1014.8 hPa Calm     63 % 0.00 in /  0 mm
18:49 61.2 °F /  16.2 °C 48.9 °F /  9.4 °C 29.97 in /  1014.8 hPa Calm     64 % 0.00 in /  0 mm
18:54 61.0 °F /  16.1 °C 48.7 °F /  9.3 °C 29.97 in /  1014.8 hPa Calm     64 % 0.00 in /  0 mm
18:59 60.8 °F /  16 °C 48.5 °F /  9.2 °C 29.97 in /  1014.8 hPa Calm     64 % 0.00 in /  0 mm
19:04 60.6 °F /  15.9 °C 48.8 °F /  9.3 °C 29.97 in /  1014.8 hPa Calm     65 % 0.00 in /  0 mm
19:09 60.5 °F /  15.8 °C 48.7 °F /  9.3 °C 29.97 in /  1014.8 hPa Calm     65 % 0.00 in /  0 mm
19:14 60.4 °F /  15.8 °C 49.0 °F /  9.4 °C 29.97 in /  1014.8 hPa Calm     66 % 0.00 in /  0 mm
19:19 60.3 °F /  15.7 °C 48.9 °F /  9.4 °C 29.97 in /  1014.8 hPa Calm     66 % 0.00 in /  0 mm
19:24 60.1 °F /  15.6 °C 49.1 °F /  9.5 °C 29.97 in /  1014.8 hPa Calm     67 % 0.00 in /  0 mm
19:29 59.9 °F /  15.5 °C 48.9 °F /  9.4 °C 29.97 in /  1014.8 hPa Calm     67 % 0.00 in /  0 mm
19:34 59.6 °F /  15.3 °C 49.0 °F /  9.4 °C 29.97 in /  1014.8 hPa Calm     68 % 0.00 in /  0 mm
19:39 59.3 °F /  15.2 °C 48.7 °F /  9.3 °C 29.97 in /  1014.8 hPa Calm     68 % 0.00 in /  0 mm
19:44 59.0 °F /  15 °C 48.8 °F /  9.3 °C 29.97 in /  1014.8 hPa Calm     69 % 0.00 in /  0 mm
19:49 58.8 °F /  14.9 °C 49.0 °F /  9.4 °C 29.97 in /  1014.8 hPa Calm     70 % 0.00 in /  0 mm
19:54 58.7 °F /  14.8 °C 49.3 °F /  9.6 °C 29.97 in /  1014.8 hPa Calm     71 % 0.00 in /  0 mm
19:59 58.6 °F /  14.8 °C 49.6 °F /  9.8 °C 29.97 in /  1014.8 hPa Calm     72 % 0.00 in /  0 mm
20:04 58.3 °F /  14.6 °C 49.7 °F /  9.8 °C 29.97 in /  1014.8 hPa Calm     73 % 0.00 in /  0 mm
20:09 57.9 °F /  14.4 °C 49.3 °F /  9.6 °C 29.97 in /  1014.8 hPa Calm     73 % 0.00 in /  0 mm
20:14 57.5 °F /  14.2 °C 48.9 °F /  9.4 °C 29.97 in /  1014.8 hPa Calm     73 % 0.00 in /  0 mm
20:19 56.9 °F /  13.8 °C 48.7 °F /  9.3 °C 29.97 in /  1014.8 hPa Calm     74 % 0.00 in /  0 mm
20:24 56.4 °F /  13.6 °C 48.6 °F /  9.2 °C 29.97 in /  1014.8 hPa Calm     75 % 0.00 in /  0 mm
20:29 55.8 °F /  13.2 °C 48.7 °F /  9.3 °C 29.98 in /  1015.1 hPa Calm     77 % 0.00 in /  0 mm
20:34 55.4 °F /  13 °C 48.3 °F /  9.1 °C 29.97 in /  1014.8 hPa Calm     77 % 0.00 in /  0 mm
20:39 55.1 °F /  12.8 °C 48.4 °F /  9.1 °C 29.97 in /  1014.8 hPa Calm     78 % 0.00 in /  0 mm
20:44 55.1 °F /  12.8 °C 48.7 °F /  9.3 °C 29.97 in /  1014.8 hPa Calm     79 % 0.00 in /  0 mm
20:49 55.1 °F /  12.8 °C 48.7 °F /  9.3 °C 29.98 in /  1015.1 hPa Calm     79 % 0.00 in /  0 mm
20:54 55.2 °F /  12.9 °C 48.8 °F /  9.3 °C 29.98 in /  1015.1 hPa Calm     79 % 0.00 in /  0 mm
20:59 55.2 °F /  12.9 °C 48.8 °F /  9.3 °C 29.98 in /  1015.1 hPa Calm     79 % 0.00 in /  0 mm
21:04 55.1 °F /  12.8 °C 48.4 °F /  9.1 °C 29.98 in /  1015.1 hPa Calm     78 % 0.00 in /  0 mm
21:09 55.0 °F /  12.8 °C 48.6 °F /  9.2 °C 29.98 in /  1015.1 hPa Calm     79 % 0.00 in /  0 mm
21:14 55.0 °F /  12.8 °C 48.6 °F /  9.2 °C 29.98 in /  1015.1 hPa Calm     79 % 0.00 in /  0 mm
21:19 55.1 °F /  12.8 °C 48.7 °F /  9.3 °C 29.98 in /  1015.1 hPa Calm     79 % 0.00 in /  0 mm
21:24 55.1 °F /  12.8 °C 48.4 °F /  9.1 °C 29.98 in /  1015.1 hPa Calm     78 % 0.00 in /  0 mm
21:29 55.0 °F /  12.8 °C 48.3 °F /  9.1 °C 29.98 in /  1015.1 hPa Calm     78 % 0.00 in /  0 mm
21:34 54.7 °F /  12.6 °C 48.0 °F /  8.9 °C 29.98 in /  1015.1 hPa Calm     78 % 0.00 in /  0 mm
21:39 54.3 °F /  12.4 °C 47.6 °F /  8.7 °C 29.97 in /  1014.8 hPa Calm     78 % 0.00 in /  0 mm
21:44 53.9 °F /  12.2 °C 47.5 °F /  8.6 °C 29.97 in /  1014.8 hPa Calm     79 % 0.00 in /  0 mm
21:49 53.3 °F /  11.8 °C 47.3 °F /  8.5 °C 29.97 in /  1014.8 hPa WNW 1.2 mph /  1.9 km/h   80 % 0.00 in /  0 mm
21:54 52.5 °F /  11.4 °C 46.8 °F /  8.2 °C 29.97 in /  1014.8 hPa Calm     81 % 0.00 in /  0 mm
22:00 52.0 °F /  11.1 °C 46.7 °F /  8.2 °C 29.96 in /  1014.4 hPa Calm     82 % 0.00 in /  0 mm
22:04 51.8 °F /  11 °C 46.8 °F /  8.2 °C 29.96 in /  1014.4 hPa Calm     83 % 0.00 in /  0 mm
22:10 51.4 °F /  10.8 °C 46.4 °F /  8 °C 29.96 in /  1014.4 hPa Calm     83 % 0.00 in /  0 mm
22:15 51.2 °F /  10.7 °C 46.5 °F /  8.1 °C 29.96 in /  1014.4 hPa Calm     84 % 0.00 in /  0 mm
22:20 51.1 °F /  10.6 °C 46.4 °F /  8 °C 29.95 in /  1014.1 hPa Calm     84 % 0.00 in /  0 mm
22:25 51.1 °F /  10.6 °C 46.4 °F /  8 °C 29.95 in /  1014.1 hPa Calm     84 % 0.00 in /  0 mm
22:30 51.0 °F /  10.6 °C 46.3 °F /  7.9 °C 29.95 in /  1014.1 hPa Calm     84 % 0.00 in /  0 mm
22:35 50.9 °F /  10.5 °C 46.6 °F /  8.1 °C 29.96 in /  1014.4 hPa Calm     85 % 0.00 in /  0 mm
22:40 50.9 °F /  10.5 °C 46.6 °F /  8.1 °C 29.96 in /  1014.4 hPa Calm     85 % 0.00 in /  0 mm
22:45 51.0 °F /  10.6 °C 46.6 °F /  8.1 °C 29.96 in /  1014.4 hPa Calm     85 % 0.00 in /  0 mm
22:50 51.1 °F /  10.6 °C 46.7 °F /  8.2 °C 29.96 in /  1014.4 hPa Calm     85 % 0.00 in /  0 mm
22:55 51.0 °F /  10.6 °C 46.6 °F /  8.1 °C 29.96 in /  1014.4 hPa Calm     85 % 0.00 in /  0 mm
23:00 50.7 °F /  10.4 °C 46.4 °F /  8 °C 29.96 in /  1014.4 hPa Calm     85 % 0.00 in /  0 mm
23:05 50.5 °F /  10.3 °C 46.5 °F /  8.1 °C 29.96 in /  1014.4 hPa Calm     86 % 0.00 in /  0 mm
23:10 50.5 °F /  10.3 °C 46.5 °F /  8.1 °C 29.96 in /  1014.4 hPa Calm     86 % 0.00 in /  0 mm
23:15 50.6 °F /  10.3 °C 46.6 °F /  8.1 °C 29.96 in /  1014.4 hPa Calm     86 % 0.00 in /  0 mm
23:20 50.6 °F /  10.3 °C 46.6 °F /  8.1 °C 29.96 in /  1014.4 hPa Calm     86 % 0.00 in /  0 mm
23:25 50.5 °F /  10.3 °C 46.5 °F /  8.1 °C 29.96 in /  1014.4 hPa Calm     86 % 0.00 in /  0 mm
23:30 50.5 °F /  10.3 °C 46.8 °F /  8.2 °C 29.96 in /  1014.4 hPa Calm     87 % 0.00 in /  0 mm
23:35 50.6 °F /  10.3 °C 46.6 °F /  8.1 °C 29.96 in /  1014.4 hPa Calm     86 % 0.00 in /  0 mm
23:40 50.9 °F /  10.5 °C 46.9 °F /  8.3 °C 29.96 in /  1014.4 hPa Calm     86 % 0.00 in /  0 mm
23:45 51.4 °F /  10.8 °C 47.0 °F /  8.3 °C 29.96 in /  1014.4 hPa Calm     85 % 0.00 in /  0 mm
23:50 51.7 °F /  10.9 °C 47.0 °F /  8.3 °C 29.96 in /  1014.4 hPa Calm     84 % 0.00 in /  0 mm
23:55 51.6 °F /  10.9 °C 46.9 °F /  8.3 °C 29.96 in /  1014.4 hPa Calm     84 % 0.00 in /  0 mm
Park Place, Exeter, Tulare County, California, USA
Compliments of Weather Underground - 2.75 mb